Terminal Aerodrome Forecast
Issued by NWS

Home | Current Version | Previous Version | Text Only | Print | Product List | Glossary On
Versions: 1 2 3 4 5 6 7 8 9 10 11 12 13
000
FTUS42 TJSJ 201100
TAFJPS
TAF
TJPS 201130Z 2012/2112 00000KT P6SM VCTS SCT040CB
     FM201450 15009KT P6SM SCT040
     FM202200 04005KT P6SM SKC=

USA.gov is the U.S. government's official web portal to all federal, state and local government web resources and services.